Time;durP1;ratioP1;P1;durP2;ratioP2;P2;SDS_P1;SDS_P2;PMS_P1;PMS_P2;Temp;Humidity;BMP_temperature;BMP_pressure;BME280_temperature;BME280_humidity;BME280_pressure;Samples;Min_cycle;Max_cycle;Signal;HPM_P1;HPM_P2
2022/07/15 00:04:27;;;;;;;0.10;0.10;;;;;;;;;;15334657;19;20017;-66
2022/07/15 00:14:48;;;;;;;0.10;0.10;;;;;;;;;;15337911;19;20010;-66
2022/07/15 00:19:50;;;;;;;0.00;0.00;;;;;;;;;;15335831;19;20026;-66
2022/07/15 00:24:52;;;;;;;0.10;0.10;;;;;;;;;;15340050;19;20046;-66
2022/07/15 00:29:53;;;;;;;0.10;0.10;;;;;;;;;;15352764;19;20018;-67
2022/07/15 00:34:55;;;;;;;0.10;0.10;;;;;;;;;;15346537;19;20003;-67
2022/07/15 00:39:56;;;;;;;0.10;0.10;;;;;;;;;;15351747;19;20018;-66
2022/07/15 00:44:57;;;;;;;0.10;0.10;;;;;;;;;;15346171;19;20120;-67
2022/07/15 00:49:58;;;;;;;0.10;0.10;;;;;;;;;;15350630;19;20135;-66
2022/07/15 00:55:01;;;;;;;0.10;0.10;;;;;;;;;;15349840;19;20010;-67
2022/07/15 01:00:13;;;;;;;0.08;0.08;;;;;;;;;;15355511;19;20014;-66
2022/07/15 01:05:14;;;;;;;0.00;0.00;;;;;;;;;;15343070;19;20007;-66
2022/07/15 01:10:17;;;;;;;0.00;0.00;;;;;;;;;;15346476;19;20003;-67
2022/07/15 01:15:18;;;;;;;0.00;0.00;;;;;;;;;;15355922;19;20022;-67
2022/07/15 01:20:20;;;;;;;0.10;0.10;;;;;;;;;;15354895;19;20014;-66
2022/07/15 01:25:21;;;;;;;0.10;0.10;;;;;;;;;;15351585;19;20188;-66
2022/07/15 01:30:22;;;;;;;0.10;0.10;;;;;;;;;;15353591;19;20014;-66
2022/07/15 01:35:24;;;;;;;0.10;0.10;;;;;;;;;;15342977;19;20154;-65
2022/07/15 01:40:25;;;;;;;0.00;0.00;;;;;;;;;;15352905;19;20237;-67
2022/07/15 01:45:27;;;;;;;0.00;0.00;;;;;;;;;;15348210;19;20078;-67
2022/07/15 01:50:28;;;;;;;0.00;0.00;;;;;;;;;;15352397;19;20195;-67
2022/07/15 01:55:29;;;;;;;0.10;0.10;;;;;;;;;;15351307;19;20011;-66
2022/07/15 02:00:30;;;;;;;0.00;0.00;;;;;;;;;;15351337;19;20139;-67
2022/07/15 02:05:31;;;;;;;0.10;0.10;;;;;;;;;;15345683;19;20037;-66
2022/07/15 02:10:42;;;;;;;0.00;0.00;;;;;;;;;;15341665;19;19999;-66
2022/07/15 02:15:43;;;;;;;0.00;0.00;;;;;;;;;;15350801;19;20022;-67
2022/07/15 02:20:46;;;;;;;0.00;0.00;;;;;;;;;;15346949;19;20010;-66
2022/07/15 02:25:47;;;;;;;0.10;0.10;;;;;;;;;;15342471;19;20006;-67
2022/07/15 02:30:48;;;;;;;0.00;0.00;;;;;;;;;;15342665;19;20218;-66
2022/07/15 02:35:50;;;;;;;0.00;0.00;;;;;;;;;;15336203;19;20007;-67
2022/07/15 02:40:52;;;;;;;0.00;0.00;;;;;;;;;;15340737;19;20014;-66
2022/07/15 02:45:53;;;;;;;0.00;0.00;;;;;;;;;;15334504;19;19999;-65
2022/07/15 02:50:54;;;;;;;0.00;0.00;;;;;;;;;;15347153;19;20021;-66
2022/07/15 02:55:58;;;;;;;0.00;0.00;;;;;;;;;;15345207;19;20062;-68
2022/07/15 03:01:00;;;;;;;0.00;0.00;;;;;;;;;;15343908;19;20071;-66
2022/07/15 03:06:01;;;;;;;0.00;0.00;;;;;;;;;;15342135;19;20014;-66
2022/07/15 03:11:03;;;;;;;0.00;0.00;;;;;;;;;;15344139;19;20021;-66
2022/07/15 03:16:04;;;;;;;0.00;0.00;;;;;;;;;;15344137;19;20304;-66
2022/07/15 03:21:06;;;;;;;0.10;0.10;;;;;;;;;;15342378;19;20040;-66
2022/07/15 03:26:07;;;;;;;0.00;0.00;;;;;;;;;;15336732;19;20028;-66
2022/07/15 03:31:08;;;;;;;0.10;0.10;;;;;;;;;;15340660;19;20007;-66
2022/07/15 03:36:10;;;;;;;0.60;0.60;;;;;;;;;;15343170;19;20223;-67
2022/07/15 03:41:11;;;;;;;0.40;0.40;;;;;;;;;;15340553;19;20010;-67
2022/07/15 03:46:14;;;;;;;0.40;0.40;;;;;;;;;;15332713;19;20022;-66
2022/07/15 03:51:15;;;;;;;0.30;0.30;;;;;;;;;;15343188;19;20482;-66
2022/07/15 03:56:16;;;;;;;0.30;0.30;;;;;;;;;;15340259;19;20015;-67
2022/07/15 04:01:17;;;;;;;0.20;0.20;;;;;;;;;;15336121;19;20179;-67
2022/07/15 04:06:20;;;;;;;0.20;0.20;;;;;;;;;;15338082;19;20007;-68
2022/07/15 04:11:21;;;;;;;0.10;0.10;;;;;;;;;;15332782;19;20013;-67
2022/07/15 04:16:22;;;;;;;0.10;0.10;;;;;;;;;;15339587;19;20010;-68
2022/07/15 04:21:25;;;;;;;0.00;0.00;;;;;;;;;;15332919;19;20049;-69
2022/07/15 04:26:26;;;;;;;0.00;0.00;;;;;;;;;;15336939;19;20025;-67
2022/07/15 04:31:27;;;;;;;0.00;0.00;;;;;;;;;;15332834;19;20014;-67
2022/07/15 04:36:29;;;;;;;0.00;0.00;;;;;;;;;;15332700;19;20231;-68
2022/07/15 04:41:30;;;;;;;0.00;0.00;;;;;;;;;;15332084;19;20067;-67
2022/07/15 04:46:31;;;;;;;0.00;0.00;;;;;;;;;;15334411;19;20002;-67
2022/07/15 04:51:32;;;;;;;0.00;0.00;;;;;;;;;;15340318;19;20025;-65
2022/07/15 04:56:34;;;;;;;0.00;0.00;;;;;;;;;;15333805;19;20017;-66
2022/07/15 05:01:35;;;;;;;0.00;0.00;;;;;;;;;;15336390;19;20097;-67
2022/07/15 05:06:36;;;;;;;0.00;0.00;;;;;;;;;;15331681;19;20062;-67
2022/07/15 05:11:37;;;;;;;0.00;0.00;;;;;;;;;;15336985;19;20019;-66
2022/07/15 05:16:39;;;;;;;0.00;0.00;;;;;;;;;;15349592;19;20010;-67
2022/07/15 05:21:40;;;;;;;0.00;0.00;;;;;;;;;;15350544;19;20011;-68
2022/07/15 05:26:42;;;;;;;0.00;0.00;;;;;;;;;;15342297;19;20007;-68
2022/07/15 05:31:43;;;;;;;0.00;0.00;;;;;;;;;;15346800;19;20033;-68
2022/07/15 05:36:44;;;;;;;0.00;0.00;;;;;;;;;;15347385;19;20002;-66
2022/07/15 05:41:46;;;;;;;0.00;0.00;;;;;;;;;;15346876;19;20015;-67
2022/07/15 05:46:47;;;;;;;0.00;0.00;;;;;;;;;;15343496;19;20058;-67
2022/07/15 05:51:48;;;;;;;0.00;0.00;;;;;;;;;;15349708;19;20022;-66
2022/07/15 05:56:49;;;;;;;0.00;0.00;;;;;;;;;;15342435;19;20286;-65
2022/07/15 06:01:51;;;;;;;0.00;0.00;;;;;;;;;;15348569;19;20017;-67
2022/07/15 06:06:53;;;;;;;0.00;0.00;;;;;;;;;;15343726;19;20226;-64
2022/07/15 06:11:55;;;;;;;0.05;0.05;;;;;;;;;;15350207;19;20019;-66
2022/07/15 06:16:57;;;;;;;0.17;0.17;;;;;;;;;;15349021;19;20062;-65
2022/07/15 06:21:59;;;;;;;0.20;0.20;;;;;;;;;;15345691;19;20021;-65
2022/07/15 06:27:00;;;;;;;0.50;0.50;;;;;;;;;;15345548;19;20021;-67
2022/07/15 06:32:02;;;;;;;0.80;0.80;;;;;;;;;;15345823;19;20006;-67
2022/07/15 06:37:05;;;;;;;1.60;1.60;;;;;;;;;;15346822;19;20021;-67
2022/07/15 06:42:06;;;;;;;0.65;0.65;;;;;;;;;;15347397;19;20015;-67
2022/07/15 06:47:08;;;;;;;0.10;0.10;;;;;;;;;;15341766;19;20018;-66
2022/07/15 06:52:09;;;;;;;0.00;0.00;;;;;;;;;;15348028;19;20014;-65
2022/07/15 06:57:12;;;;;;;0.00;0.00;;;;;;;;;;15345086;19;20031;-68
2022/07/15 07:02:14;;;;;;;0.00;0.00;;;;;;;;;;15344894;19;20062;-65
2022/07/15 07:07:15;;;;;;;0.00;0.00;;;;;;;;;;15344861;19;20059;-68
2022/07/15 07:12:16;;;;;;;0.00;0.00;;;;;;;;;;15343982;19;20154;-67
2022/07/15 07:17:18;;;;;;;0.00;0.00;;;;;;;;;;15344419;19;20014;-67
2022/07/15 07:22:20;;;;;;;0.00;0.00;;;;;;;;;;15343736;19;20031;-65
2022/07/15 07:27:24;;;;;;;0.00;0.00;;;;;;;;;;15343734;19;20039;-67
2022/07/15 07:32:25;;;;;;;0.20;0.20;;;;;;;;;;15338519;19;20006;-67
2022/07/15 07:37:27;;;;;;;0.60;0.60;;;;;;;;;;15342474;19;20011;-67
2022/07/15 07:42:28;;;;;;;;;;;;;;;;;;15341763;19;20016;-65
2022/07/15 07:47:29;;;;;;;5.85;5.65;;;;;;;;;;15340756;19;19928;-66
2022/07/15 07:52:30;;;;;;;0.00;0.00;;;;;;;;;;15339946;19;20014;-68
2022/07/15 07:57:32;;;;;;;0.00;0.00;;;;;;;;;;15338141;19;20025;-67
2022/07/15 08:02:33;;;;;;;0.20;0.20;;;;;;;;;;15339790;19;20010;-67
2022/07/15 08:07:35;;;;;;;0.13;0.13;;;;;;;;;;15338354;19;20022;-66
2022/07/15 08:12:37;;;;;;;0.75;0.75;;;;;;;;;;15339416;19;20015;-67
2022/07/15 08:17:40;;;;;;;3.65;3.55;;;;;;;;;;15337754;19;20018;-68
2022/07/15 08:22:41;;;;;;;0.10;0.10;;;;;;;;;;15336830;19;20011;-67
2022/07/15 08:27:42;;;;;;;0.00;0.00;;;;;;;;;;15338107;19;20015;-66
2022/07/15 08:32:44;;;;;;;0.00;0.00;;;;;;;;;;15334384;19;20006;-67
2022/07/15 08:37:45;;;;;;;0.00;0.00;;;;;;;;;;15336996;19;20017;-66
2022/07/15 08:42:47;;;;;;;0.00;0.00;;;;;;;;;;15337020;19;20161;-67
2022/07/15 08:47:51;;;;;;;0.00;0.00;;;;;;;;;;15349836;19;20033;-67
2022/07/15 08:52:52;;;;;;;0.10;0.10;;;;;;;;;;15353282;19;20026;-67
2022/07/15 08:57:54;;;;;;;0.00;0.00;;;;;;;;;;15350494;19;20227;-66
2022/07/15 09:03:00;;;;;;;0.00;0.00;;;;;;;;;;15350256;19;20045;-68
2022/07/15 09:08:15;;;;;;;0.00;0.00;;;;;;;;;;15350289;19;20013;-70
2022/07/15 09:13:38;;;;;;;0.00;0.00;;;;;;;;;;15352785;19;20010;-67
2022/07/15 09:18:43;;;;;;;0.00;0.00;;;;;;;;;;15353045;19;20010;-67
2022/07/15 09:23:45;;;;;;;0.00;0.00;;;;;;;;;;15347199;19;20017;-66
2022/07/15 09:28:49;;;;;;;0.00;0.00;;;;;;;;;;15349947;19;20019;-67
2022/07/15 09:33:59;;;;;;;0.00;0.00;;;;;;;;;;15346836;19;20066;-66
2022/07/15 09:39:04;;;;;;;0.00;0.00;;;;;;;;;;15351413;19;20037;-67
2022/07/15 09:44:22;;;;;;;0.00;0.00;;;;;;;;;;15351010;19;20036;-67
2022/07/15 09:49:27;;;;;;;0.00;0.00;;;;;;;;;;15347841;19;20010;-65
2022/07/15 09:54:33;;;;;;;0.00;0.00;;;;;;;;;;15348733;19;20246;-67
2022/07/15 09:59:35;;;;;;;0.00;0.00;;;;;;;;;;15351578;19;19994;-66
2022/07/15 10:04:38;;;;;;;0.00;0.00;;;;;;;;;;15353864;19;19999;-66
2022/07/15 10:09:41;;;;;;;0.00;0.00;;;;;;;;;;15348955;19;20026;-67
2022/07/15 10:14:52;;;;;;;0.00;0.00;;;;;;;;;;15346759;19;20010;-66
2022/07/15 10:20:12;;;;;;;0.00;0.00;;;;;;;;;;15348888;19;20002;-66
2022/07/15 10:25:32;;;;;;;0.00;0.00;;;;;;;;;;15348262;19;20267;-69
2022/07/15 10:30:33;;;;;;;0.00;0.00;;;;;;;;;;15347974;19;20348;-67
2022/07/15 10:35:45;;;;;;;0.00;0.00;;;;;;;;;;15342541;19;20023;-68
2022/07/15 10:41:07;;;;;;;0.00;0.00;;;;;;;;;;15346024;19;20215;-66
2022/07/15 10:46:15;;;;;;;0.00;0.00;;;;;;;;;;15346389;19;20021;-65
2022/07/15 10:51:40;;;;;;;0.00;0.00;;;;;;;;;;15348979;19;20240;-65
2022/07/15 10:56:43;;;;;;;0.00;0.00;;;;;;;;;;15343065;19;20010;-68
2022/07/15 11:02:04;;;;;;;0.00;0.00;;;;;;;;;;15344386;19;20018;-65
2022/07/15 11:12:10;;;;;;;0.00;0.00;;;;;;;;;;15343084;19;20007;-64
2022/07/15 11:17:12;;;;;;;0.00;0.00;;;;;;;;;;15343032;19;20010;-66
2022/07/15 11:22:13;;;;;;;0.00;0.00;;;;;;;;;;15343258;19;20123;-73
2022/07/15 11:27:15;;;;;;;0.00;0.00;;;;;;;;;;15339585;19;20014;-70
2022/07/15 11:32:20;;;;;;;0.00;0.00;;;;;;;;;;15341604;19;20003;-71
2022/07/15 11:37:29;;;;;;;0.00;0.00;;;;;;;;;;15343013;19;20022;-68
2022/07/15 11:47:53;;;;;;;0.00;0.00;;;;;;;;;;15338789;19;20146;-65
2022/07/15 11:52:58;;;;;;;0.00;0.00;;;;;;;;;;15339394;19;20014;-67
2022/07/15 11:58:00;;;;;;;0.00;0.00;;;;;;;;;;15346896;19;20011;-67
2022/07/15 12:03:08;;;;;;;0.00;0.00;;;;;;;;;;15341792;19;20007;-68
2022/07/15 12:08:09;;;;;;;0.00;0.00;;;;;;;;;;15339299;19;20230;-67
2022/07/15 12:13:12;;;;;;;0.00;0.00;;;;;;;;;;15341878;19;20022;-68
2022/07/15 12:18:13;;;;;;;0.00;0.00;;;;;;;;;;15338305;19;20011;-69
2022/07/15 12:23:17;;;;;;;0.00;0.00;;;;;;;;;;15351148;19;20123;-65
2022/07/15 12:28:32;;;;;;;0.00;0.00;;;;;;;;;;15356684;19;20027;-70
2022/07/15 12:33:35;;;;;;;0.00;0.00;;;;;;;;;;15350313;19;20119;-67
2022/07/15 12:38:36;;;;;;;0.00;0.00;;;;;;;;;;15356797;19;20013;-66
2022/07/15 12:43:53;;;;;;;0.00;0.00;;;;;;;;;;15355079;19;20223;-66
2022/07/15 12:48:55;;;;;;;0.00;0.00;;;;;;;;;;15355488;19;20025;-69
2022/07/15 12:54:03;;;;;;;0.00;0.00;;;;;;;;;;15357648;19;20136;-68
2022/07/15 12:59:04;;;;;;;0.00;0.00;;;;;;;;;;15352419;19;20124;-69
2022/07/15 13:04:06;;;;;;;0.00;0.00;;;;;;;;;;15353166;19;20014;-69
2022/07/15 13:09:07;;;;;;;0.00;0.00;;;;;;;;;;15351149;19;20013;-68
2022/07/15 13:14:08;;;;;;;0.00;0.00;;;;;;;;;;15352575;19;20086;-69
2022/07/15 13:19:10;;;;;;;0.00;0.00;;;;;;;;;;15349986;19;20031;-68
2022/07/15 13:24:11;;;;;;;0.00;0.00;;;;;;;;;;15349701;19;20014;-68
2022/07/15 13:29:12;;;;;;;0.00;0.00;;;;;;;;;;15350986;19;20020;-69
2022/07/15 13:34:23;;;;;;;0.00;0.00;;;;;;;;;;15344157;19;20010;-67
2022/07/15 13:39:25;;;;;;;0.00;0.00;;;;;;;;;;15352419;19;20017;-69
2022/07/15 13:44:26;;;;;;;0.00;0.00;;;;;;;;;;15351204;19;19998;-72
